createdAt,value
2023-01-13T00:01:43.086Z,100.00
2023-01-13T00:04:12.060Z,100.00
2023-01-13T00:06:40.955Z,100.00
2023-01-13T00:09:09.720Z,100.00
2023-01-13T00:11:38.464Z,100.00
2023-01-13T00:14:07.231Z,100.00
2023-01-13T00:16:36.009Z,100.00
2023-01-13T00:19:04.807Z,100.00
2023-01-13T00:21:33.659Z,100.00
2023-01-13T00:24:02.461Z,100.00
2023-01-13T00:26:33.860Z,100.00
2023-01-13T00:29:04.147Z,100.00
2023-01-13T00:31:32.994Z,100.00
2023-01-13T00:34:02.246Z,100.00
2023-01-13T00:36:32.209Z,100.00
2023-01-13T00:39:00.773Z,100.00
2023-01-13T00:41:49.329Z,100.00
2023-01-13T00:44:18.204Z,100.00
2023-01-13T00:46:46.854Z,100.00
2023-01-13T00:49:15.524Z,100.00
2023-01-13T00:51:44.415Z,100.00
2023-01-13T00:54:13.134Z,100.00
2023-01-13T00:56:41.660Z,100.00
2023-01-13T00:59:14.410Z,100.00
2023-01-13T01:01:43.311Z,100.00
2023-01-13T01:04:12.346Z,100.00
2023-01-13T01:06:41.205Z,99.99
2023-01-13T01:09:14.728Z,99.96
2023-01-13T01:11:44.045Z,99.91
2023-01-13T01:14:14.428Z,99.94
2023-01-13T01:16:43.036Z,99.70
2023-01-13T01:19:11.718Z,99.64
2023-01-13T01:21:40.551Z,99.89
2023-01-13T01:24:10.085Z,100.00
2023-01-13T01:26:38.758Z,100.00
2023-01-13T01:29:07.621Z,100.00
2023-01-13T01:31:36.319Z,100.00
2023-01-13T01:34:05.163Z,100.00
2023-01-13T01:36:35.233Z,100.00
2023-01-13T01:39:04.971Z,100.00
2023-01-13T01:41:36.205Z,100.00
2023-01-13T01:44:58.723Z,100.00
2023-01-13T01:47:29.884Z,100.00
2023-01-13T01:49:58.924Z,100.00
2023-01-13T01:52:36.839Z,100.00
2023-01-13T01:55:16.982Z,100.00
2023-01-13T01:58:13.460Z,100.00
2023-01-13T02:00:42.488Z,100.00
2023-01-13T02:03:11.468Z,100.00
2023-01-13T02:05:40.146Z,100.00
2023-01-13T02:08:11.914Z,100.00
2023-01-13T02:10:43.288Z,100.00
2023-01-13T02:13:14.168Z,100.00
2023-01-13T02:16:13.403Z,100.00
2023-01-13T02:19:43.211Z,100.00
2023-01-13T02:22:27.959Z,100.00
2023-01-13T02:25:55.833Z,100.00
2023-01-13T02:29:32.777Z,100.00
2023-01-13T02:32:22.395Z,100.00
2023-01-13T02:35:15.336Z,100.00
2023-01-13T02:37:44.463Z,100.00
2023-01-13T02:40:25.394Z,100.00
2023-01-13T02:43:26.362Z,100.00
2023-01-13T02:46:24.590Z,100.00
2023-01-13T02:48:57.671Z,100.00
2023-01-13T02:51:30.279Z,100.00
2023-01-13T02:54:05.032Z,100.00
2023-01-13T02:56:39.666Z,100.00
2023-01-13T02:59:10.704Z,100.00
2023-01-13T03:01:40.079Z,100.00
2023-01-13T03:04:14.792Z,100.00
2023-01-13T03:06:57.043Z,100.00
2023-01-13T03:09:43.313Z,100.00
2023-01-13T03:12:23.984Z,100.00
2023-01-13T03:15:09.802Z,100.00
2023-01-13T03:18:21.693Z,100.00
2023-01-13T03:21:06.853Z,100.00
2023-01-13T03:23:54.114Z,100.00
2023-01-13T03:26:53.114Z,100.00
2023-01-13T03:30:07.759Z,100.00
2023-01-13T03:32:42.515Z,100.00
2023-01-13T03:35:30.971Z,100.00
2023-01-13T03:38:20.821Z,100.00
2023-01-13T03:40:56.095Z,100.00
2023-01-13T03:43:50.584Z,100.00
2023-01-13T03:46:28.337Z,100.00
2023-01-13T03:48:59.971Z,100.00
2023-01-13T03:51:34.930Z,100.00
2023-01-13T03:54:10.715Z,100.00
2023-01-13T03:56:45.967Z,100.00
2023-01-13T03:59:24.382Z,100.00
2023-01-13T04:02:27.770Z,100.00
2023-01-13T04:05:03.261Z,100.00
2023-01-13T04:07:42.997Z,100.00
2023-01-13T04:10:14.298Z,100.00
2023-01-13T04:13:01.135Z,100.00
2023-01-13T04:15:35.523Z,100.00
2023-01-13T04:18:27.400Z,100.00
2023-01-13T04:20:59.769Z,100.00
2023-01-13T04:23:29.401Z,100.00
2023-01-13T04:25:59.025Z,100.00
2023-01-13T04:28:29.999Z,100.00
2023-01-13T04:30:58.822Z,100.00
2023-01-13T04:33:27.534Z,100.00
2023-01-13T04:35:56.463Z,100.00
2023-01-13T04:38:25.205Z,100.00
2023-01-13T04:40:53.993Z,100.00
2023-01-13T04:43:22.702Z,100.00
2023-01-13T04:45:51.713Z,100.00
2023-01-13T04:48:20.680Z,100.00
2023-01-13T04:50:49.518Z,100.00
2023-01-13T04:53:18.349Z,100.00
2023-01-13T04:55:48.276Z,100.00
2023-01-13T04:58:17.240Z,100.00
2023-01-13T05:00:46.014Z,100.00
2023-01-13T05:03:15.584Z,100.00
2023-01-13T05:05:45.235Z,100.00
2023-01-13T05:08:14.023Z,100.00
2023-01-13T05:10:44.512Z,100.00
2023-01-13T05:13:33.438Z,100.00
2023-01-13T05:16:43.647Z,100.00
2023-01-13T05:19:16.621Z,100.00
2023-01-13T05:22:04.432Z,100.00
2023-01-13T05:24:52.050Z,100.00
2023-01-13T05:27:20.953Z,100.00
2023-01-13T05:29:49.924Z,100.00
2023-01-13T05:32:19.575Z,100.00
2023-01-13T05:34:48.963Z,100.00
2023-01-13T05:37:20.851Z,100.00
2023-01-13T05:40:08.518Z,100.00
2023-01-13T05:42:56.826Z,100.00
2023-01-13T05:45:26.450Z,100.00
2023-01-13T05:47:55.631Z,100.00
2023-01-13T05:50:25.478Z,100.00
2023-01-13T05:52:54.527Z,100.00
2023-01-13T05:55:23.430Z,100.00
2023-01-13T05:57:52.690Z,100.00
2023-01-13T06:00:22.215Z,100.00
2023-01-13T06:02:51.381Z,100.00
2023-01-13T06:05:21.143Z,100.00
2023-01-13T06:07:51.493Z,100.00
2023-01-13T06:10:20.808Z,100.00
2023-01-13T06:12:50.173Z,100.00
2023-01-13T06:15:19.893Z,100.00
2023-01-13T06:17:49.020Z,100.00
2023-01-13T06:20:19.460Z,100.00
2023-01-13T06:22:52.254Z,100.00
2023-01-13T06:26:02.585Z,100.00
2023-01-13T06:28:35.820Z,100.00
2023-01-13T06:34:41.396Z,100.00
2023-01-13T06:37:15.283Z,100.00
2023-01-13T06:39:44.279Z,100.00
2023-01-13T06:42:32.047Z,100.00
2023-01-13T06:45:01.228Z,100.00
2023-01-13T06:47:30.370Z,100.00
2023-01-13T06:50:00.236Z,100.00
2023-01-13T06:52:30.913Z,100.00
2023-01-13T06:54:59.877Z,100.00
2023-01-13T06:57:29.062Z,100.00
2023-01-13T06:59:59.205Z,100.00
2023-01-13T07:02:28.575Z,100.00
2023-01-13T07:04:57.861Z,100.00
2023-01-13T07:07:27.699Z,100.00
2023-01-13T07:09:56.713Z,100.00
2023-01-13T07:12:26.152Z,99.99
2023-01-13T07:15:14.994Z,100.00
2023-01-13T07:17:43.856Z,100.00
2023-01-13T07:20:12.983Z,99.91
2023-01-13T07:22:41.846Z,99.59
2023-01-13T07:25:11.647Z,99.02
2023-01-13T07:27:40.624Z,98.75
2023-01-13T07:30:11.757Z,98.61
2023-01-13T07:32:40.605Z,97.84
2023-01-13T07:35:09.799Z,98.22
2023-01-13T07:37:39.598Z,98.61
2023-01-13T07:40:11.181Z,98.36
2023-01-13T07:42:59.174Z,98.57
2023-01-13T07:45:27.848Z,98.16
2023-01-13T07:47:56.499Z,97.38
2023-01-13T07:50:25.344Z,96.69
2023-01-13T07:52:58.630Z,96.37
2023-01-13T07:55:27.605Z,96.82
2023-01-13T07:57:56.518Z,96.54
2023-01-13T08:00:25.292Z,97.22
2023-01-13T08:02:54.117Z,97.34
2023-01-13T08:05:22.845Z,96.83
2023-01-13T08:11:11.456Z,96.08
2023-01-13T08:13:40.368Z,95.59
2023-01-13T08:16:14.036Z,95.71
2023-01-13T08:18:43.619Z,95.85
2023-01-13T08:21:15.180Z,95.83
2023-01-13T08:23:45.454Z,96.07
2023-01-13T08:26:18.016Z,95.66
2023-01-13T08:28:46.920Z,95.35
2023-01-13T08:31:17.179Z,96.01
2023-01-13T08:33:47.317Z,95.04
2023-01-13T08:36:16.400Z,94.78
2023-01-13T08:38:45.116Z,94.74
2023-01-13T08:41:40.433Z,94.27
2023-01-13T08:44:09.532Z,94.94
2023-01-13T08:46:38.539Z,95.30
2023-01-13T08:49:07.527Z,95.61
2023-01-13T08:51:36.771Z,94.98
2023-01-13T08:54:05.702Z,94.74
2023-01-13T09:00:07.835Z,95.92
2023-01-13T09:02:38.648Z,95.99
2023-01-13T09:05:08.735Z,94.89
2023-01-13T09:07:39.093Z,94.45
2023-01-13T09:10:10.059Z,94.94
2023-01-13T09:16:12.988Z,94.18
2023-01-13T09:18:41.818Z,93.98
2023-01-13T09:21:11.773Z,94.63
2023-01-13T09:23:40.413Z,94.39
2023-01-13T09:26:10.371Z,94.33
2023-01-13T09:28:39.172Z,94.68
2023-01-13T09:31:08.358Z,94.67
2023-01-13T09:33:55.877Z,94.20
2023-01-13T09:36:24.863Z,93.85
2023-01-13T09:38:53.684Z,94.18
2023-01-13T09:41:48.523Z,93.81
2023-01-13T09:44:28.200Z,94.49
2023-01-13T09:47:04.512Z,94.77
2023-01-13T09:49:42.390Z,94.89
2023-01-13T09:52:15.866Z,94.03
2023-01-13T09:55:14.746Z,92.77
2023-01-13T09:57:45.614Z,93.37
2023-01-13T10:00:29.333Z,93.69
2023-01-13T10:03:28.961Z,92.35
2023-01-13T10:06:22.689Z,92.95
2023-01-13T10:08:51.820Z,92.06
2023-01-13T10:11:45.593Z,92.36
2023-01-13T10:14:41.723Z,93.04
2023-01-13T10:17:49.386Z,92.85
2023-01-13T10:20:33.557Z,92.44
2023-01-13T10:23:27.096Z,93.02
2023-01-13T10:26:24.354Z,91.99
2023-01-13T10:28:58.577Z,91.25
2023-01-13T10:31:27.629Z,91.69
2023-01-13T10:34:02.064Z,91.68
2023-01-13T10:36:31.292Z,91.54
2023-01-13T10:39:17.085Z,91.38
2023-01-13T10:41:45.928Z,92.01
2023-01-13T10:44:20.108Z,91.41
2023-01-13T10:46:56.621Z,91.77
2023-01-13T10:49:39.379Z,91.70
2023-01-13T10:52:55.139Z,91.15
2023-01-13T10:55:38.895Z,91.34
2023-01-13T10:58:17.687Z,91.38
2023-01-13T11:00:47.712Z,91.73
2023-01-13T11:03:19.975Z,91.49
2023-01-13T11:05:58.345Z,90.52
2023-01-13T11:08:42.390Z,91.42
2023-01-13T11:11:47.770Z,90.70
2023-01-13T11:14:40.112Z,91.27
2023-01-13T11:17:46.632Z,90.35
2023-01-13T11:20:31.919Z,90.94
2023-01-13T11:23:16.316Z,91.11
2023-01-13T11:25:53.191Z,90.89
2023-01-13T11:29:00.406Z,90.82
2023-01-13T11:31:40.331Z,91.03
2023-01-13T11:34:26.118Z,90.89
2023-01-13T11:36:58.583Z,91.07
2023-01-13T11:39:54.066Z,91.01
2023-01-13T11:42:32.440Z,90.46
2023-01-13T11:45:32.197Z,90.39
2023-01-13T11:48:03.250Z,90.35
2023-01-13T11:51:14.104Z,91.61
2023-01-13T11:54:33.435Z,91.21
2023-01-13T11:57:56.290Z,91.04
2023-01-13T12:00:31.458Z,91.16
2023-01-13T12:03:25.068Z,89.42
2023-01-13T12:06:27.958Z,88.57
2023-01-13T12:09:25.027Z,88.66
2023-01-13T12:12:37.167Z,88.81
2023-01-13T12:15:21.991Z,88.56
2023-01-13T12:17:50.824Z,87.23
2023-01-13T12:20:42.797Z,87.78
2023-01-13T12:23:59.498Z,87.72
2023-01-13T12:26:35.003Z,88.24
2023-01-13T12:29:11.604Z,89.19
2023-01-13T12:31:43.222Z,89.09
2023-01-13T12:34:47.759Z,88.23
2023-01-13T12:38:15.245Z,86.94
2023-01-13T12:41:06.757Z,87.38
2023-01-13T12:43:57.014Z,86.72
2023-01-13T12:46:25.777Z,87.33
2023-01-13T12:48:56.851Z,87.29
2023-01-13T12:51:36.959Z,86.82
2023-01-13T12:54:30.895Z,86.94
2023-01-13T12:57:00.768Z,87.28
2023-01-13T12:59:29.623Z,86.51
2023-01-13T13:02:16.101Z,87.62
2023-01-13T13:04:52.029Z,87.30
2023-01-13T13:07:41.389Z,88.01
2023-01-13T13:10:28.686Z,88.38
2023-01-13T13:13:18.988Z,87.63
2023-01-13T13:15:52.213Z,87.79
2023-01-13T13:18:28.580Z,87.46
2023-01-13T13:21:07.427Z,88.84
2023-01-13T13:23:57.894Z,88.03
2023-01-13T13:26:46.007Z,88.57
2023-01-13T13:29:59.871Z,87.82
2023-01-13T13:33:02.633Z,87.64
2023-01-13T13:36:36.129Z,87.81
2023-01-13T13:39:47.689Z,88.35
2023-01-13T13:42:47.994Z,89.24
2023-01-13T13:45:40.116Z,89.50
2023-01-13T13:48:27.387Z,89.58
2023-01-13T13:51:02.685Z,89.60
2023-01-13T13:53:41.993Z,89.20
2023-01-13T13:56:32.735Z,89.30
2023-01-13T13:59:01.689Z,89.67
2023-01-13T14:02:04.267Z,89.43
2023-01-13T14:04:38.168Z,90.26
2023-01-13T14:07:22.370Z,90.31
2023-01-13T14:09:54.904Z,90.10
2023-01-13T14:12:27.291Z,89.62
2023-01-13T14:14:57.772Z,90.03
2023-01-13T14:17:29.947Z,90.23
2023-01-13T14:20:05.977Z,90.22
2023-01-13T14:26:01.523Z,90.56
2023-01-13T14:28:38.637Z,91.23
2023-01-13T14:31:10.199Z,91.90
2023-01-13T14:33:48.991Z,92.41
2023-01-13T14:36:41.881Z,92.38
2023-01-13T14:39:15.093Z,92.81
2023-01-13T14:41:43.883Z,93.25
2023-01-13T14:44:36.893Z,93.61
2023-01-13T14:47:20.611Z,93.48
2023-01-13T14:50:04.846Z,93.39
2023-01-13T14:52:52.784Z,93.49
2023-01-13T14:55:38.849Z,93.22
2023-01-13T14:58:23.399Z,92.60
2023-01-13T21:53:56.131Z,95.37
2023-01-13T21:56:25.486Z,94.99
2023-01-13T21:58:56.301Z,94.76
2023-01-13T22:01:25.250Z,94.62
2023-01-13T22:04:13.075Z,95.14
2023-01-13T22:06:41.867Z,94.93
2023-01-13T22:09:10.748Z,94.87
2023-01-13T22:11:39.815Z,94.51
2023-01-13T22:14:10.268Z,95.01
2023-01-13T22:16:49.181Z,94.84
2023-01-13T22:19:18.927Z,95.19
2023-01-13T22:21:47.715Z,95.31
2023-01-13T22:24:16.543Z,95.04
2023-01-13T22:26:45.306Z,95.06
2023-01-13T22:29:14.064Z,94.80
2023-01-13T22:31:43.185Z,94.93
2023-01-13T22:37:50.466Z,95.11
2023-01-13T22:40:19.605Z,95.43
2023-01-13T22:42:48.367Z,95.61
2023-01-13T22:45:17.071Z,95.50
2023-01-13T22:47:45.791Z,94.96
2023-01-13T22:50:14.741Z,94.96
2023-01-13T22:52:43.388Z,94.89
2023-01-13T22:55:12.104Z,95.24
2023-01-13T22:57:47.657Z,94.86
2023-01-13T23:00:19.363Z,94.85
2023-01-13T23:02:48.355Z,95.08
2023-01-13T23:05:17.797Z,95.77
2023-01-13T23:07:46.609Z,95.91
2023-01-13T23:10:15.319Z,96.29
2023-01-13T23:12:44.117Z,95.94
2023-01-13T23:15:13.005Z,95.48
2023-01-13T23:17:41.697Z,95.19
2023-01-13T23:20:11.633Z,96.29
2023-01-13T23:22:41.007Z,95.89
2023-01-13T23:25:11.098Z,95.47
2023-01-13T23:27:39.924Z,95.39
2023-01-13T23:30:11.398Z,95.80
2023-01-13T23:32:40.389Z,96.49
2023-01-13T23:35:11.286Z,96.73
2023-01-13T23:37:40.070Z,96.93
2023-01-13T23:40:10.266Z,96.82
2023-01-13T23:42:39.183Z,96.92
2023-01-13T23:45:10.011Z,96.32
2023-01-13T23:47:39.362Z,95.53
2023-01-13T23:50:09.488Z,96.04
2023-01-13T23:52:40.444Z,96.56
2023-01-13T23:55:09.978Z,96.10
2023-01-13T23:57:40.906Z,95.86
